Time;durP1;ratioP1;P1;durP2;ratioP2;P2;SDS_P1;SDS_P2;PMS_P1;PMS_P2;Temp;Humidity;BMP_temperature;BMP_pressure;BME280_temperature;BME280_humidity;BME280_pressure;Samples;Min_cycle;Max_cycle;Signal;HPM_P1;HPM_P2
2021/10/02 00:44:48;;;;;;;9.95;4.63;;;;;;;10.93;54.00;100974.94;5069054;28;20044;-22
2021/10/02 00:47:18;;;;;;;8.75;4.22;;;;;;;11.31;53.07;100965.63;5069323;28;20032;-21
2021/10/02 00:49:44;;;;;;;8.77;5.00;;;;;;;11.42;52.18;100976.53;5069036;28;20455;-21
2021/10/02 00:52:12;;;;;;;8.15;4.80;;;;;;;11.26;52.49;100967.06;5069186;28;20024;-22
2021/10/02 00:54:37;;;;;;;9.32;4.68;;;;;;;11.42;51.76;100981.03;5068659;28;20048;-21
2021/10/02 00:57:03;;;;;;;8.50;4.68;;;;;;;11.85;50.97;100970.84;5069105;28;20020;-22
2021/10/02 00:59:31;;;;;;;8.05;4.28;;;;;;;12.20;49.55;100973.34;5068982;28;20024;-21
2021/10/02 01:01:58;;;;;;;8.70;4.60;;;;;;;11.19;53.07;100981.41;5069069;28;20090;-21
2021/10/02 01:04:38;;;;;;;9.20;4.82;;;;;;;11.17;52.67;100980.78;5068998;28;20036;-22
2021/10/02 01:07:15;;;;;;;9.93;5.10;;;;;;;10.62;54.11;100981.56;5052159;28;20031;-22
2021/10/02 01:10:16;;;;;;;11.02;5.05;;;;;;;10.86;53.74;100982.09;5051867;28;20082;-22
2021/10/02 01:13:06;;;;;;;9.75;4.68;;;;;;;10.68;54.44;100973.78;5033185;28;20039;-22
2021/10/02 01:16:05;;;;;;;10.00;4.88;;;;;;;10.19;54.97;100975.50;5068909;28;20036;-23
2021/10/02 01:18:43;;;;;;;9.93;4.88;;;;;;;10.33;55.44;100973.78;5068988;28;20029;-22
2021/10/02 01:21:49;;;;;;;8.15;5.03;;;;;;;10.28;55.54;100974.34;5035554;28;20036;-22
2021/10/02 01:24:33;;;;;;;7.65;4.72;;;;;;;9.92;56.84;100972.63;5069123;28;20027;-21
2021/10/02 01:27:17;;;;;;;10.13;5.50;;;;;;;10.04;56.32;100973.75;5068724;28;20041;-21
2021/10/02 01:29:43;;;;;;;9.88;4.72;;;;;;;10.73;53.67;100964.19;5068577;28;20115;-22
2021/10/02 01:32:21;;;;;;;14.93;7.72;;;;;;;10.90;52.50;100940.63;5050841;28;20107;-22
2021/10/02 01:48:15;;;;;;;11.45;5.65;;;;;;;10.17;54.77;100945.53;5054472;28;20031;-22
2021/10/02 01:50:43;;;;;;;11.18;5.28;;;;;;;10.52;55.03;100956.25;5054496;28;20033;-21
2021/10/02 01:53:09;;;;;;;12.23;5.80;;;;;;;9.81;56.83;100967.84;5054462;28;20024;-22
2021/10/02 01:55:35;;;;;;;25.05;12.35;;;;;;;9.04;56.32;100942.66;5054593;28;20036;-22
2021/10/02 01:58:06;;;;;;;20.98;13.15;;;;;;;8.62;58.13;100962.78;5072311;28;20052;-22
2021/10/02 02:00:31;;;;;;;29.27;15.30;;;;;;;8.43;58.75;100942.91;5054586;28;20032;-21
2021/10/02 02:03:02;;;;;;;29.45;17.60;;;;;;;8.27;59.57;100946.53;5072280;28;20043;-22
2021/10/02 02:05:29;;;;;;;28.15;17.33;;;;;;;9.07;57.59;100963.56;5072472;28;20535;-21
2021/10/02 02:08:06;;;;;;;26.10;15.85;;;;;;;9.18;57.47;100957.78;5038165;28;20036;-22
2021/10/02 02:10:32;;;;;;;28.90;14.82;;;;;;;9.31;57.43;100946.44;5039368;28;20032;-21
2021/10/02 02:12:58;;;;;;;17.63;8.90;;;;;;;9.70;56.20;100955.00;5071963;28;20032;-21
2021/10/02 02:15:25;;;;;;;16.55;9.07;;;;;;;9.39;57.36;100964.13;5054125;28;20032;-21
2021/10/02 02:17:52;;;;;;;21.70;11.35;;;;;;;8.63;59.30;100932.56;5054426;28;20039;-22
2021/10/02 02:20:36;;;;;;;14.95;8.02;;;;;;;8.87;59.77;100965.16;5072040;28;20504;-22
2021/10/02 02:23:03;;;;;;;18.67;11.23;;;;;;;9.28;58.23;100961.97;5054670;28;20037;-22
2021/10/02 02:25:28;;;;;;;72.22;44.85;;;;;;;8.93;59.29;100961.75;5072163;28;20029;-21
2021/10/02 02:27:55;;;;;;;56.42;35.50;;;;;;;8.10;61.36;100950.38;5053954;28;20036;-22
2021/10/02 02:30:20;;;;;;;25.65;15.15;;;;;;;7.53;62.37;100951.66;5071739;28;20085;-22
2021/10/02 02:32:46;;;;;;;12.75;8.73;;;;;;;7.20;63.58;100967.81;5071276;28;20040;-22
2021/10/02 02:35:12;;;;;;;12.07;7.10;;;;;;;7.72;62.32;100950.34;5071558;28;20068;-21
2021/10/02 02:37:37;;;;;;;11.25;5.82;;;;;;;7.93;61.48;100929.28;5071510;28;20063;-22
2021/10/02 02:40:04;;;;;;;10.75;6.18;;;;;;;8.12;61.29;100964.31;5071690;28;20024;-22
2021/10/02 02:42:29;;;;;;;10.43;6.30;;;;;;;8.33;61.02;100974.22;5071386;28;20036;-22
2021/10/02 02:44:54;;;;;;;12.18;7.00;;;;;;;8.90;58.97;100964.81;5053430;28;20028;-21
2021/10/02 02:47:22;;;;;;;10.95;5.80;;;;;;;9.12;58.44;100973.66;5071558;28;20067;-22
2021/10/02 02:49:52;;;;;;;12.23;6.32;;;;;;;9.11;57.38;100956.03;5053639;28;20103;-22
2021/10/02 02:52:23;;;;;;;8.50;5.95;;;;;;;9.31;57.29;100964.25;5037213;28;20101;-22
2021/10/02 02:55:07;;;;;;;12.77;5.90;;;;;;;9.40;56.73;100960.47;5053378;28;20052;-22
2021/10/02 02:58:02;;;;;;;10.55;6.20;;;;;;;9.22;57.09;100958.22;5054148;28;20029;-22
2021/10/02 03:00:27;;;;;;;11.73;5.88;;;;;;;9.28;57.34;100972.63;5055377;28;20141;-22
2021/10/02 03:02:56;;;;;;;11.13;6.32;;;;;;;9.26;57.13;100975.47;5069865;28;20435;-22
2021/10/02 03:05:22;;;;;;;10.10;6.15;;;;;;;8.94;58.03;100939.47;5071287;28;20032;-22
2021/10/02 03:08:08;;;;;;;12.23;7.10;;;;;;;9.28;57.31;100972.63;5036600;28;20040;-22
2021/10/02 03:10:34;;;;;;;11.48;6.40;;;;;;;8.99;58.29;100953.88;5070710;28;20043;-21
2021/10/02 03:13:05;;;;;;;11.85;6.85;;;;;;;9.59;56.48;100964.34;5036574;28;20032;-22
2021/10/02 03:15:30;;;;;;;12.98;6.90;;;;;;;9.59;56.58;100978.47;5037267;28;20033;-22
2021/10/02 03:17:56;;;;;;;16.65;9.82;;;;;;;9.18;57.80;100967.59;5053072;28;20491;-22
2021/10/02 03:20:21;;;;;;;18.08;10.45;;;;;;;9.44;57.60;100972.41;5053083;28;20121;-22
2021/10/02 03:22:48;;;;;;;18.17;9.57;;;;;;;9.28;58.03;100983.28;5052810;28;20527;-21
2021/10/02 03:25:14;;;;;;;17.45;8.77;;;;;;;8.79;59.65;100985.53;5036590;28;20032;-22
2021/10/02 03:27:40;;;;;;;13.65;8.38;;;;;;;8.42;60.79;100989.94;5052969;28;20036;-21
2021/10/02 03:30:06;;;;;;;19.83;11.18;;;;;;;8.52;60.64;100988.84;5070828;28;20033;-22
2021/10/02 03:32:31;;;;;;;24.15;13.73;;;;;;;9.21;58.51;100983.19;5052965;28;20024;-22
2021/10/02 03:34:57;;;;;;;36.58;22.85;;;;;;;8.57;60.43;100970.50;5070331;28;20401;-22
2021/10/02 03:37:22;;;;;;;57.25;33.30;;;;;;;8.96;59.00;100985.34;5070706;28;20086;-22
2021/10/02 03:39:48;;;;;;;81.63;48.75;;;;;;;9.00;57.63;100952.03;5070499;28;20029;-22
2021/10/02 03:42:18;;;;;;;76.20;50.50;;;;;;;8.88;58.98;100977.47;5069687;28;20036;-22
2021/10/02 03:44:45;;;;;;;67.40;43.22;;;;;;;9.09;58.38;100974.84;5070064;28;20032;-21
2021/10/02 03:47:10;;;;;;;61.10;38.70;;;;;;;8.42;60.02;100952.72;5070181;28;20056;-22
2021/10/02 03:49:36;;;;;;;64.10;40.55;;;;;;;9.03;58.12;100941.84;5070380;28;20778;-21
2021/10/02 03:52:02;;;;;;;109.25;65.03;;;;;;;8.57;59.12;100970.50;5070415;28;20032;-22
2021/10/02 03:54:28;;;;;;;80.40;45.75;;;;;;;8.17;60.82;100969.88;5069912;28;20125;-21
2021/10/02 03:56:53;;;;;;;90.82;53.88;;;;;;;8.15;61.36;100974.56;5069878;28;20135;-21
2021/10/02 03:59:19;;;;;;;24.67;14.57;;;;;;;7.49;63.74;100972.44;5070161;28;20040;-22
2021/10/02 04:01:44;;;;;;;14.30;9.65;;;;;;;7.45;63.98;100971.13;5070063;28;20032;-21
2021/10/02 04:04:10;;;;;;;13.30;8.43;;;;;;;8.05;61.75;100951.75;5070324;28;20871;-22
2021/10/02 04:06:35;;;;;;;21.55;8.13;;;;;;;8.27;60.93;100970.44;5069768;28;20458;-21
2021/10/02 04:09:02;;;;;;;15.18;7.90;;;;;;;8.51;59.80;100966.75;5070175;28;20032;-21
2021/10/02 04:11:27;;;;;;;12.60;8.02;;;;;;;8.27;60.55;100980.25;5069113;28;20029;-22
2021/10/02 04:13:53;;;;;;;10.18;7.20;;;;;;;7.93;61.67;100958.50;5069850;28;20073;-21
2021/10/02 04:16:18;;;;;;;13.65;6.95;;;;;;;8.40;60.37;100970.66;5069633;28;20136;-22
2021/10/02 04:18:44;;;;;;;10.95;6.70;;;;;;;8.03;62.05;100975.00;5069509;28;20086;-22
2021/10/02 04:21:09;;;;;;;12.38;6.82;;;;;;;7.68;63.43;100959.69;5069917;28;20028;-21
2021/10/02 04:23:35;;;;;;;11.80;6.38;;;;;;;7.28;65.06;100973.06;5069628;28;20044;-22
2021/10/02 04:26:00;;;;;;;8.75;6.00;;;;;;;7.34;65.38;100982.16;5069582;28;20035;-21
2021/10/02 04:28:26;;;;;;;9.40;6.18;;;;;;;7.69;63.61;100982.59;5069609;28;20404;-22
2021/10/02 04:30:51;;;;;;;10.50;6.03;;;;;;;7.51;64.02;100983.69;5069096;28;20098;-22
2021/10/02 04:33:18;;;;;;;12.55;6.72;;;;;;;7.97;62.72;100986.34;5069448;28;20043;-21
2021/10/02 04:35:43;;;;;;;10.82;6.65;;;;;;;8.27;61.51;100981.06;5069370;28;20029;-22
2021/10/02 04:38:09;;;;;;;16.98;7.80;;;;;;;7.39;64.25;100962.03;5069324;28;20082;-22
2021/10/02 04:40:34;;;;;;;12.30;6.38;;;;;;;7.22;65.41;100987.84;5069537;28;20033;-21
2021/10/02 04:43:00;;;;;;;13.23;6.30;;;;;;;7.09;66.75;100998.22;5069351;28;20481;-22
2021/10/02 04:45:25;;;;;;;16.15;7.13;;;;;;;7.34;65.83;100984.81;5069234;28;20488;-21
2021/10/02 04:47:51;;;;;;;21.23;8.45;;;;;;;7.82;64.35;100994.25;5069181;28;20106;-22
2021/10/02 04:50:16;;;;;;;20.73;12.40;;;;;;;7.24;64.28;100990.34;5069181;28;20039;-22
2021/10/02 04:52:42;;;;;;;22.42;12.38;;;;;;;6.35;63.99;101000.25;5068958;28;20531;-22
2021/10/02 04:55:07;;;;;;;21.13;10.85;;;;;;;6.29;64.53;101008.84;5069081;28;20048;-22
2021/10/02 04:57:33;;;;;;;14.95;9.02;;;;;;;6.23;66.20;101013.84;5069070;28;20028;-22
2021/10/02 04:59:58;;;;;;;19.23;10.13;;;;;;;6.56;66.19;101023.53;5069040;28;20419;-22
2021/10/02 05:02:24;;;;;;;31.67;13.93;;;;;;;7.16;63.95;101009.75;5069324;28;20032;-21
2021/10/02 05:04:49;;;;;;;31.17;15.93;;;;;;;7.78;63.30;101010.72;5068885;28;20032;-22
2021/10/02 05:07:15;;;;;;;30.50;17.88;;;;;;;8.21;61.20;101008.38;5069036;28;20458;-21
2021/10/02 05:09:44;;;;;;;30.15;16.63;;;;;;;8.20;61.37;101014.72;5068794;28;20047;-23
2021/10/02 05:12:10;;;;;;;35.63;16.80;;;;;;;8.28;61.29;101009.31;5068926;28;20411;-22
2021/10/02 05:14:36;;;;;;;29.42;14.73;;;;;;;7.90;63.10;100981.91;5068630;28;20068;-21
2021/10/02 05:17:04;;;;;;;32.38;16.20;;;;;;;8.12;63.52;101012.94;5051238;28;20580;-22
2021/10/02 05:19:30;;;;;;;27.75;15.00;;;;;;;8.27;63.97;101002.34;5068851;28;20406;-22
2021/10/02 05:21:55;;;;;;;24.65;15.38;;;;;;;8.55;63.17;100993.81;5068788;28;20036;-21
2021/10/02 05:24:21;;;;;;;23.13;13.52;;;;;;;8.93;61.86;100997.19;5068879;28;20565;-22
2021/10/02 05:26:46;;;;;;;21.45;11.95;;;;;;;9.29;60.68;101000.88;5068889;28;20040;-21
2021/10/02 05:29:12;;;;;;;16.17;9.52;;;;;;;9.17;61.31;101003.19;5068764;28;20032;-21
2021/10/02 05:31:37;;;;;;;13.98;8.15;;;;;;;9.20;61.05;100995.66;5068812;28;20033;-21
2021/10/02 05:34:03;;;;;;;13.85;9.30;;;;;;;9.50;61.04;101014.25;5068639;28;20041;-21
2021/10/02 05:36:28;;;;;;;12.80;7.97;;;;;;;9.60;60.51;101004.09;5068633;28;20036;-21
2021/10/02 05:38:53;;;;;;;12.32;7.60;;;;;;;9.82;60.23;101002.25;5068435;28;20052;-22
2021/10/02 05:41:19;;;;;;;13.43;8.40;;;;;;;9.83;60.74;101013.75;5068676;28;20044;-21
2021/10/02 05:43:44;;;;;;;62.00;38.63;;;;;;;9.90;60.93;101009.28;5068919;28;20032;-22
2021/10/02 05:46:10;;;;;;;23.67;13.88;;;;;;;9.72;60.87;101016.91;5068673;28;20040;-22
2021/10/02 05:48:35;;;;;;;11.13;7.72;;;;;;;9.80;60.80;101014.13;5068477;28;20032;-22
2021/10/02 05:51:01;;;;;;;16.25;7.53;;;;;;;9.68;61.34;101021.78;5068464;28;20040;-22
2021/10/02 05:53:26;;;;;;;11.80;8.45;;;;;;;9.76;60.35;100996.88;5068167;28;20818;-26
2021/10/02 05:55:52;;;;;;;12.25;7.68;;;;;;;9.99;59.44;101008.16;5068603;28;20412;-22
2021/10/02 05:58:18;;;;;;;12.50;7.45;;;;;;;9.85;59.59;100993.88;5068390;28;20037;-21
2021/10/02 06:00:43;;;;;;;18.75;10.63;;;;;;;10.14;59.50;101015.25;5068505;28;20868;-21
2021/10/02 06:03:09;;;;;;;15.88;8.20;;;;;;;10.68;58.40;101017.28;5068543;28;20039;-22
2021/10/02 06:05:35;;;;;;;12.13;7.30;;;;;;;10.75;57.74;101015.50;5068425;28;20035;-22
2021/10/02 06:08:00;;;;;;;13.40;7.55;;;;;;;10.92;57.36;101021.31;5068450;28;20028;-21
2021/10/02 06:10:26;;;;;;;15.43;7.93;;;;;;;10.92;57.28;101012.50;5068485;28;20024;-21
2021/10/02 06:12:54;;;;;;;14.68;7.88;;;;;;;11.05;57.71;101025.91;5068147;28;20059;-21
2021/10/02 06:15:23;;;;;;;20.83;8.82;;;;;;;11.31;57.15;101014.50;5068269;28;20466;-23
2021/10/02 06:17:49;;;;;;;11.25;7.50;;;;;;;11.29;56.75;101029.09;5068217;28;20039;-23
2021/10/02 06:20:15;;;;;;;11.57;7.95;;;;;;;11.51;56.33;101011.09;5068170;28;20024;-23
2021/10/02 06:22:40;;;;;;;12.80;8.05;;;;;;;11.77;55.49;101010.28;5067977;28;20036;-23
2021/10/02 06:25:06;;;;;;;11.57;8.90;;;;;;;11.72;56.12;101007.41;5068262;28;20029;-23
2021/10/02 06:27:32;;;;;;;12.60;9.10;;;;;;;12.11;55.19;101027.22;5068150;28;20120;-23
2021/10/02 06:29:58;;;;;;;15.43;9.23;;;;;;;12.20;55.02;101021.47;5068321;28;20032;-24
2021/10/02 06:32:25;;;;;;;11.60;9.00;;;;;;;12.20;54.93;101026.00;5067962;28;20416;-23
2021/10/02 06:34:50;;;;;;;11.48;8.23;;;;;;;12.26;54.81;101030.53;5069593;28;20036;-22
2021/10/02 06:37:15;;;;;;;12.57;8.30;;;;;;;12.03;55.13;101026.41;5071800;28;20549;-21
2021/10/02 06:39:41;;;;;;;13.07;8.57;;;;;;;12.27;54.45;101021.47;5071666;28;20393;-22
2021/10/02 06:42:06;;;;;;;10.77;7.50;;;;;;;12.74;53.69;101032.91;5071483;28;20063;-22
2021/10/02 06:44:32;;;;;;;10.88;7.22;;;;;;;13.00;52.81;101025.88;5071583;28;20036;-22
2021/10/02 06:46:57;;;;;;;11.38;7.10;;;;;;;13.16;52.80;101030.75;5070145;28;20032;-22
2021/10/02 06:49:27;;;;;;;14.40;7.88;;;;;;;13.41;51.73;101036.22;5071829;28;20040;-22
2021/10/02 06:51:53;;;;;;;13.93;7.78;;;;;;;13.32;51.62;101039.34;5071443;28;20028;-21
2021/10/02 06:54:18;;;;;;;11.43;7.63;;;;;;;13.24;52.17;101027.81;5071332;28;20044;-22
2021/10/02 06:56:44;;;;;;;16.27;7.57;;;;;;;13.68;51.52;101029.91;5071342;28;20040;-22
2021/10/02 06:59:11;;;;;;;14.70;8.27;;;;;;;13.71;50.10;101026.78;5071526;28;20045;-21
2021/10/02 07:01:36;;;;;;;11.40;7.20;;;;;;;13.66;50.13;101025.56;5071494;28;20032;-21
2021/10/02 07:04:02;;;;;;;13.52;8.05;;;;;;;13.92;50.09;101031.78;5071187;28;20044;-22
2021/10/02 07:06:27;;;;;;;10.80;6.85;;;;;;;14.16;49.00;101018.59;5053448;28;20441;-21
2021/10/02 07:08:52;;;;;;;13.43;6.72;;;;;;;13.98;48.81;101028.25;5070991;28;20415;-22
2021/10/02 07:11:18;;;;;;;12.30;6.43;;;;;;;14.09;49.33;101031.25;5070987;28;20024;-22
2021/10/02 07:13:43;;;;;;;13.80;6.47;;;;;;;14.20;48.51;101025.19;5071159;28;20036;-22
2021/10/02 07:16:09;;;;;;;12.63;6.22;;;;;;;14.26;48.13;101026.97;5071096;28;20063;-22
2021/10/02 07:18:34;;;;;;;12.75;6.90;;;;;;;14.28;47.78;101027.59;5070685;28;20028;-21
2021/10/02 07:21:00;;;;;;;12.15;6.38;;;;;;;14.17;47.21;101025.63;5071148;28;20538;-22
2021/10/02 07:23:29;;;;;;;9.95;5.25;;;;;;;14.33;47.25;101032.31;5071118;28;20032;-21
2021/10/02 07:25:55;;;;;;;10.13;6.50;;;;;;;14.36;46.60;101023.81;5070710;28;20066;-22
2021/10/02 07:28:21;;;;;;;10.52;6.07;;;;;;;14.49;46.79;101022.88;5070844;28;20036;-22
2021/10/02 07:30:46;;;;;;;9.93;5.53;;;;;;;14.39;47.35;101024.19;5070507;28;20033;-21
2021/10/02 07:33:12;;;;;;;9.95;5.45;;;;;;;14.53;46.69;101022.22;5070490;28;20028;-22
2021/10/02 07:35:38;;;;;;;11.20;5.10;;;;;;;14.81;45.69;101005.63;5070750;28;20032;-22
2021/10/02 07:38:03;;;;;;;8.80;5.22;;;;;;;14.60;46.23;101024.84;5070506;28;20472;-21
2021/10/02 07:40:29;;;;;;;9.20;5.20;;;;;;;14.61;46.16;101021.94;5070913;28;20063;-22
2021/10/02 07:42:55;;;;;;;9.48;4.82;;;;;;;14.61;46.16;101024.63;5070522;28;20068;-21
2021/10/02 07:45:22;;;;;;;12.63;6.00;;;;;;;14.68;46.17;101021.88;5035624;28;20067;-21
2021/10/02 07:47:47;;;;;;;10.05;5.90;;;;;;;14.79;46.30;101023.00;5070141;28;20090;-21
2021/10/02 07:50:14;;;;;;;11.63;6.28;;;;;;;15.15;45.00;101026.72;5052698;28;20036;-22
2021/10/02 07:52:40;;;;;;;13.90;6.75;;;;;;;15.02;45.14;101022.34;5070062;28;20040;-21
2021/10/02 07:55:07;;;;;;;15.20;6.10;;;;;;;15.32;44.93;101026.91;5052219;28;20056;-22
2021/10/02 07:57:33;;;;;;;7.53;4.50;;;;;;;15.49;43.00;101011.81;5052385;28;20047;-22
2021/10/02 07:59:59;;;;;;;13.43;5.22;;;;;;;15.80;42.34;101024.22;5070123;28;20036;-22
2021/10/02 08:02:24;;;;;;;11.20;4.60;;;;;;;15.94;41.64;101022.13;5070010;28;20032;-22
2021/10/02 08:04:50;;;;;;;16.85;4.47;;;;;;;16.12;42.31;101015.00;5052250;28;20032;-22
2021/10/02 08:07:15;;;;;;;16.13;4.90;;;;;;;16.32;41.89;101010.13;5068765;28;20044;-21
2021/10/02 08:09:41;;;;;;;8.07;4.25;;;;;;;16.24;40.50;101002.38;5069841;28;20500;-22
2021/10/02 08:12:07;;;;;;;6.22;3.75;;;;;;;16.35;41.07;101014.22;5069937;28;20261;-22
2021/10/02 08:14:33;;;;;;;7.30;3.40;;;;;;;16.39;40.39;101012.72;5070182;28;20052;-22
2021/10/02 08:16:58;;;;;;;6.45;3.42;;;;;;;16.45;39.62;101015.28;5069874;28;20067;-21
2021/10/02 08:19:24;;;;;;;8.52;4.25;;;;;;;16.67;39.31;101017.34;5052029;28;20024;-22
2021/10/02 08:21:49;;;;;;;7.55;3.88;;;;;;;16.99;38.52;101003.53;5069662;28;20037;-21
2021/10/02 08:24:15;;;;;;;12.50;3.60;;;;;;;17.05;37.65;100997.19;5051729;28;20056;-21
2021/10/02 08:26:41;;;;;;;6.97;3.42;;;;;;;16.99;38.31;100998.13;5069744;28;20484;-21
2021/10/02 08:29:07;;;;;;;7.65;3.30;;;;;;;17.07;38.27;101016.63;5069796;28;20021;-22
2021/10/02 08:31:34;;;;;;;6.22;3.10;;;;;;;16.99;38.70;101003.53;5068243;28;20043;-22
2021/10/02 08:33:59;;;;;;;6.15;3.15;;;;;;;17.23;38.23;101005.09;5069506;28;20040;-21
2021/10/02 08:36:25;;;;;;;6.93;3.75;;;;;;;16.97;37.65;100994.84;5069468;28;20032;-22
2021/10/02 08:38:50;;;;;;;9.57;3.60;;;;;;;17.27;37.55;101011.63;5069021;28;20067;-22
2021/10/02 08:41:18;;;;;;;10.93;3.85;;;;;;;17.67;37.87;101010.75;5069520;28;20079;-21
2021/10/02 08:43:43;;;;;;;7.30;3.50;;;;;;;17.92;37.27;101001.50;5069489;28;20466;-21
2021/10/02 08:46:09;;;;;;;12.10;5.43;;;;;;;18.11;38.18;101003.94;5034629;28;20040;-21
2021/10/02 08:48:34;;;;;;;7.82;3.80;;;;;;;18.17;37.51;101002.97;5068917;28;20035;-21
2021/10/02 08:51:03;;;;;;;7.35;4.03;;;;;;;18.22;37.16;100989.53;5069221;28;20108;-21
2021/10/02 08:53:30;;;;;;;9.52;3.40;;;;;;;18.41;36.95;100988.19;5051088;28;20084;-22
2021/10/02 08:55:56;;;;;;;9.35;3.60;;;;;;;18.57;36.78;100980.28;5069112;28;20032;-22
2021/10/02 08:58:21;;;;;;;8.20;2.97;;;;;;;17.96;37.45;100986.44;5068769;28;20032;-21
2021/10/02 09:00:47;;;;;;;6.65;3.22;;;;;;;18.21;37.24;100986.00;5067560;28;20071;-22
2021/10/02 09:03:12;;;;;;;9.20;3.78;;;;;;;18.18;36.99;100978.41;5069177;28;20032;-22
2021/10/02 09:05:38;;;;;;;6.78;3.40;;;;;;;18.38;36.98;100988.69;5069021;28;20141;-21
2021/10/02 09:08:04;;;;;;;6.40;2.83;;;;;;;18.73;34.62;100979.41;5068974;28;20528;-21
2021/10/02 09:10:31;;;;;;;5.78;3.05;;;;;;;19.03;35.56;100987.13;5069134;28;20547;-21
2021/10/02 09:12:57;;;;;;;5.45;2.85;;;;;;;18.98;34.70;100984.38;5068446;28;20039;-22
2021/10/02 09:15:22;;;;;;;7.47;3.20;;;;;;;18.74;34.71;100975.66;5068891;28;20027;-21
2021/10/02 09:17:48;;;;;;;8.23;3.00;;;;;;;19.01;34.33;100973.03;5068854;28;20404;-22
2021/10/02 09:20:14;;;;;;;6.82;2.72;;;;;;;19.23;33.50;100959.50;5069136;28;20480;-22
2021/10/02 09:22:40;;;;;;;8.50;3.00;;;;;;;19.73;34.84;100981.09;5068808;28;20028;-22
2021/10/02 09:25:09;;;;;;;5.32;2.92;;;;;;;19.68;33.09;100949.38;5067588;28;20029;-22
2021/10/02 09:27:35;;;;;;;7.10;2.80;;;;;;;19.43;32.06;100958.91;5051181;28;20787;-22
2021/10/02 09:30:01;;;;;;;7.05;3.05;;;;;;;19.87;31.54;100966.84;5068847;28;20159;-21
2021/10/02 09:32:29;;;;;;;12.43;3.65;;;;;;;19.28;34.29;100934.38;5068676;28;20111;-21
2021/10/02 09:34:55;;;;;;;;;;;;;;;19.53;33.31;100977.09;5069016;28;20086;-22
2021/10/02 09:37:23;;;;;;;6.95;3.13;;;;;;;19.48;32.86;100974.34;5068619;28;20334;-22
2021/10/02 09:39:49;;;;;;;5.78;3.00;;;;;;;20.04;31.74;100961.31;5068862;28;20041;-21
2021/10/02 09:42:23;;;;;;;6.95;2.88;;;;;;;20.13;31.85;100955.41;5068944;28;20028;-22
2021/10/02 09:44:49;;;;;;;5.53;2.42;;;;;;;19.93;31.56;100956.91;5068415;28;20119;-21
2021/10/02 09:47:18;;;;;;;5.80;2.78;;;;;;;20.32;31.64;100945.78;5068672;28;20032;-22
2021/10/02 09:49:45;;;;;;;6.70;2.80;;;;;;;20.28;31.69;100945.47;5068384;28;20029;-22
2021/10/02 09:52:30;;;;;;;6.30;2.95;;;;;;;19.58;32.86;100946.56;5068592;28;20484;-21
2021/10/02 09:54:56;;;;;;;8.45;3.13;;;;;;;19.70;34.43;100949.13;5068006;28;20080;-24
2021/10/02 09:57:23;;;;;;;7.75;2.67;;;;;;;19.62;32.79;100926.03;5068136;28;20033;-21
2021/10/02 09:59:50;;;;;;;5.85;2.55;;;;;;;19.87;33.16;100938.97;5068334;28;20032;-22
2021/10/02 10:02:19;;;;;;;8.07;2.97;;;;;;;20.47;32.27;100932.31;5068424;28;20561;-22
2021/10/02 10:04:51;;;;;;;10.68;3.13;;;;;;;20.63;31.20;100932.41;5068208;28;20056;-21
2021/10/02 10:07:17;;;;;;;7.30;2.55;;;;;;;20.98;30.01;100928.97;5068262;28;20103;-22
2021/10/02 10:09:42;;;;;;;6.57;2.80;;;;;;;21.01;29.41;100924.94;5070163;28;20105;-21
2021/10/02 10:12:08;;;;;;;4.80;2.78;;;;;;;21.08;31.08;100925.50;5070912;28;20543;-21
2021/10/02 10:14:34;;;;;;;8.85;2.60;;;;;;;21.33;30.00;100921.19;5071927;28;20033;-21
2021/10/02 10:16:59;;;;;;;5.80;2.35;;;;;;;21.19;30.61;100921.72;5072209;28;20028;-21
2021/10/02 10:19:26;;;;;;;5.60;2.63;;;;;;;20.71;31.78;100912.91;5071969;28;20031;-21
2021/10/02 10:22:04;;;;;;;4.60;2.38;;;;;;;21.01;30.84;100914.91;5072067;28;20480;-21
2021/10/02 10:24:29;;;;;;;4.55;2.70;;;;;;;21.16;30.79;100916.81;5073271;28;20056;-22
2021/10/02 10:26:55;;;;;;;5.50;2.83;;;;;;;21.71;30.27;100908.22;5074409;28;20086;-22
2021/10/02 10:29:20;;;;;;;8.65;2.75;;;;;;;22.36;28.51;100906.47;5075184;28;20035;-22
2021/10/02 10:31:57;;;;;;;5.03;2.45;;;;;;;21.02;30.45;100900.28;5075116;28;20029;-21
2021/10/02 10:34:23;;;;;;;5.35;2.85;;;;;;;20.83;30.70;100907.28;5074954;28;20032;-21
2021/10/02 10:36:48;;;;;;;4.45;2.40;;;;;;;21.35;30.60;100903.56;5075085;28;20028;-22
2021/10/02 10:39:14;;;;;;;4.20;2.20;;;;;;;21.57;30.12;100906.03;5057138;28;20025;-21
2021/10/02 10:41:39;;;;;;;6.07;2.70;;;;;;;21.63;28.35;100880.50;5074833;28;20036;-21
2021/10/02 10:44:04;;;;;;;4.07;2.45;;;;;;;21.09;30.03;100905.44;5073724;28;20055;-21
2021/10/02 10:46:30;;;;;;;5.05;2.75;;;;;;;20.96;30.17;100895.09;5057259;28;20025;-21
2021/10/02 10:48:58;;;;;;;5.55;2.40;;;;;;;21.23;29.39;100892.97;5073633;28;20032;-21
2021/10/02 10:51:27;;;;;;;5.78;2.45;;;;;;;21.90;29.67;100882.09;5074814;28;20031;-21
2021/10/02 10:53:53;;;;;;;6.47;2.70;;;;;;;21.43;30.75;100884.06;5057167;28;20049;-21
2021/10/02 10:56:44;;;;;;;4.55;2.00;;;;;;;21.34;29.75;100863.16;5074579;28;20028;-21
2021/10/02 10:59:12;;;;;;;6.53;2.65;;;;;;;20.76;30.80;100880.41;5074746;28;20052;-21
2021/10/02 11:01:39;;;;;;;7.70;2.25;;;;;;;20.70;30.99;100876.06;5074530;28;20067;-22
2021/10/02 11:04:05;;;;;;;5.97;2.37;;;;;;;21.27;30.38;100888.66;5074658;28;20035;-22
2021/10/02 11:06:53;;;;;;;6.95;2.63;;;;;;;21.42;29.86;100871.56;5074529;28;20037;-21
2021/10/02 11:09:40;;;;;;;6.10;2.50;;;;;;;21.51;31.00;100881.88;5074478;28;20025;-21
2021/10/02 11:12:12;;;;;;;8.48;2.40;;;;;;;21.13;30.42;100879.41;5074385;28;20034;-21
2021/10/02 11:14:46;;;;;;;6.20;2.45;;;;;;;21.42;30.53;100877.00;5074423;28;20029;-21
2021/10/02 11:17:13;;;;;;;7.28;2.22;;;;;;;21.44;29.75;100861.25;5074386;28;20055;-21
2021/10/02 11:19:39;;;;;;;6.07;2.35;;;;;;;21.56;29.72;100882.69;5073858;28;20028;-22
2021/10/02 11:22:48;;;;;;;3.38;1.98;;;;;;;22.37;27.85;100874.66;5074102;28;20032;-21
2021/10/02 11:25:20;;;;;;;6.63;2.55;;;;;;;22.74;28.27;100859.78;5074063;28;20484;-21
2021/10/02 11:27:46;;;;;;;5.75;2.50;;;;;;;22.48;27.60;100842.84;5074446;28;20033;-21
2021/10/02 11:30:13;;;;;;;6.22;2.47;;;;;;;22.65;28.13;100854.16;5074109;28;20032;-21
2021/10/02 11:32:38;;;;;;;5.30;2.10;;;;;;;22.62;27.18;100847.38;5073845;28;20078;-21
2021/10/02 11:35:26;;;;;;;5.80;2.35;;;;;;;22.26;27.91;100854.88;5073547;28;20032;-22
2021/10/02 11:38:06;;;;;;;4.25;2.20;;;;;;;22.18;28.22;100849.97;5073604;28;20032;-21
2021/10/02 11:40:32;;;;;;;5.35;2.47;;;;;;;22.76;27.87;100850.28;5074022;28;20039;-21
2021/10/02 11:43:27;;;;;;;4.70;2.80;;;;;;;22.95;27.59;100836.03;5073829;28;20040;-21
2021/10/02 11:45:52;;;;;;;5.90;2.15;;;;;;;22.97;27.21;100850.16;5064503;28;20028;-21
2021/10/02 11:48:20;;;;;;;5.88;2.30;;;;;;;22.06;28.79;100832.09;5073395;28;20464;-22
2021/10/02 11:51:08;;;;;;;5.22;2.63;;;;;;;22.61;27.37;100823.97;5073375;28;20048;-22
2021/10/02 11:53:54;;;;;;;6.97;2.60;;;;;;;22.98;28.13;100836.25;5073048;28;20075;-22
2021/10/02 11:56:22;;;;;;;4.43;2.33;;;;;;;23.68;26.47;100835.16;5073323;28;20039;-22
2021/10/02 11:58:49;;;;;;;5.05;2.10;;;;;;;23.98;25.95;100825.84;5073094;28;20032;-22
2021/10/02 12:01:16;;;;;;;7.15;2.70;;;;;;;23.54;27.69;100807.78;5073382;28;20031;-22
2021/10/02 12:03:42;;;;;;;5.37;2.40;;;;;;;23.75;26.41;100826.63;5073238;28;20044;-22
2021/10/02 12:06:07;;;;;;;5.85;2.28;;;;;;;23.51;25.99;100826.59;5073333;28;20040;-21
2021/10/02 12:08:33;;;;;;;4.55;2.30;;;;;;;23.66;25.32;100805.47;5073675;28;20037;-21
2021/10/02 12:11:08;;;;;;;5.30;2.20;;;;;;;24.46;25.07;100814.88;5073315;28;20093;-21
2021/10/02 12:13:45;;;;;;;5.30;2.10;;;;;;;23.92;25.18;100794.31;5072315;28;20024;-23
2021/10/02 12:16:12;;;;;;;4.43;2.40;;;;;;;23.82;25.86;100818.94;5069904;28;20039;-22
2021/10/02 12:18:44;;;;;;;6.38;2.20;;;;;;;23.95;25.09;100823.72;5069302;28;20032;-21
2021/10/02 12:21:33;;;;;;;4.57;2.08;;;;;;;24.34;24.04;100800.88;5069585;28;20048;-21
2021/10/02 12:24:22;;;;;;;6.43;2.47;;;;;;;24.66;23.73;100811.09;5063999;28;20048;-22